createdAt,value
2023-05-21T00:02:23.666Z,67.35
2023-05-21T00:04:53.227Z,67.38
2023-05-21T00:07:23.283Z,67.69
2023-05-21T00:09:50.669Z,67.39
2023-05-21T00:12:17.637Z,66.95
2023-05-21T00:14:47.159Z,66.74
2023-05-21T00:17:14.402Z,66.80
2023-05-21T00:19:41.610Z,66.40
2023-05-21T00:22:11.131Z,66.60
2023-05-21T00:24:38.156Z,66.73
2023-05-21T00:27:05.379Z,66.23
2023-05-21T00:29:32.482Z,66.78
2023-05-21T00:32:01.746Z,66.52
2023-05-21T00:34:31.105Z,66.60
2023-05-21T00:37:02.854Z,66.65
2023-05-21T00:39:29.899Z,66.01
2023-05-21T00:41:57.131Z,66.15
2023-05-21T00:44:25.381Z,66.05
2023-05-21T00:46:57.498Z,66.10
2023-05-21T00:49:29.404Z,65.93
2023-05-21T00:52:01.523Z,66.51
2023-05-21T00:54:28.911Z,65.78
2023-05-21T00:56:56.844Z,66.89
2023-05-21T00:59:24.386Z,66.78
2023-05-21T01:01:56.211Z,66.54
2023-05-21T01:04:26.519Z,66.25
2023-05-21T01:06:58.517Z,66.34
2023-05-21T01:09:27.036Z,66.57
2023-05-21T01:11:57.629Z,65.79
2023-05-21T01:14:25.458Z,66.21
2023-05-21T01:16:53.695Z,67.05
2023-05-21T01:19:23.710Z,66.65
2023-05-21T01:22:00.883Z,66.51
2023-05-21T01:24:31.479Z,67.30
2023-05-21T01:27:06.617Z,67.71
2023-05-21T01:29:34.194Z,67.48
2023-05-21T01:32:45.628Z,67.55
2023-05-21T01:35:21.583Z,67.29
2023-05-21T01:38:13.384Z,67.63
2023-05-21T01:41:07.198Z,67.92
2023-05-21T01:43:44.486Z,68.52
2023-05-21T01:46:20.495Z,68.44
2023-05-21T01:48:53.531Z,67.90
2023-05-21T01:51:26.138Z,68.08
2023-05-21T01:53:53.086Z,67.89
2023-05-21T01:56:23.071Z,68.97
2023-05-21T01:58:50.226Z,68.30
2023-05-21T02:01:20.296Z,68.59
2023-05-21T02:03:47.347Z,69.50
2023-05-21T02:06:14.389Z,69.26
2023-05-21T02:08:45.602Z,69.16
2023-05-21T02:11:14.885Z,69.72
2023-05-21T02:13:43.157Z,69.71
2023-05-21T02:16:11.813Z,69.47
2023-05-21T02:18:39.449Z,70.42
2023-05-21T02:21:11.530Z,69.89
2023-05-21T02:23:38.600Z,70.05
2023-05-21T02:26:05.756Z,69.81
2023-05-21T02:28:34.134Z,69.95
2023-05-21T02:31:04.171Z,69.70
2023-05-21T02:33:31.366Z,69.93
2023-05-21T02:35:58.555Z,69.78
2023-05-21T02:38:28.115Z,69.93
2023-05-21T02:40:55.093Z,70.06
2023-05-21T02:43:26.979Z,70.77
2023-05-21T02:45:54.433Z,70.94
2023-05-21T02:48:21.678Z,70.13
2023-05-21T02:50:48.781Z,70.77
2023-05-21T02:53:16.444Z,70.34
2023-05-21T02:55:45.673Z,70.12
2023-05-21T02:58:13.569Z,70.79
2023-05-21T03:00:41.060Z,71.19
2023-05-21T03:03:13.734Z,70.95
2023-05-21T03:05:41.344Z,71.23
2023-05-21T03:08:08.269Z,72.07
2023-05-21T03:10:37.781Z,72.22
2023-05-21T03:13:09.468Z,71.26
2023-05-21T03:15:38.815Z,72.57
2023-05-21T03:18:06.216Z,73.27
2023-05-21T03:20:43.555Z,72.88
2023-05-21T03:23:14.777Z,72.98
2023-05-21T03:25:43.527Z,72.52
2023-05-21T03:28:15.124Z,71.78
2023-05-21T03:30:46.273Z,72.42
2023-05-21T03:33:18.622Z,73.41
2023-05-21T03:35:45.605Z,72.67
2023-05-21T03:38:15.171Z,72.96
2023-05-21T03:40:44.720Z,72.10
2023-05-21T03:43:11.765Z,71.93
2023-05-21T03:45:39.856Z,72.51
2023-05-21T03:48:07.920Z,72.06
2023-05-21T03:50:37.664Z,71.61
2023-05-21T03:53:04.693Z,71.33
2023-05-21T03:55:31.627Z,71.23
2023-05-21T03:58:00.808Z,72.05
2023-05-21T04:00:27.960Z,71.32
2023-05-21T04:02:57.703Z,71.33
2023-05-21T04:05:24.950Z,71.99
2023-05-21T04:07:52.515Z,71.25
2023-05-21T04:10:23.085Z,70.88
2023-05-21T04:12:54.925Z,71.13
2023-05-21T04:15:22.069Z,71.44
2023-05-21T04:17:50.178Z,71.36
2023-05-21T04:20:17.388Z,70.68
2023-05-21T04:22:44.491Z,70.77
2023-05-21T04:25:13.828Z,70.14
2023-05-21T04:27:42.719Z,70.29
2023-05-21T04:30:14.348Z,70.75
2023-05-21T04:32:45.962Z,71.01
2023-05-21T04:35:15.135Z,71.49
2023-05-21T04:37:42.419Z,71.04
2023-05-21T04:40:10.592Z,70.22
2023-05-21T04:42:37.545Z,69.96
2023-05-21T04:45:05.104Z,70.10
2023-05-21T04:47:35.481Z,70.16
2023-05-21T04:50:07.688Z,69.47
2023-05-21T04:52:38.400Z,68.95
2023-05-21T04:55:06.513Z,69.59
2023-05-21T04:57:35.942Z,69.38
2023-05-21T05:00:06.145Z,68.31
2023-05-21T05:02:33.120Z,69.33
2023-05-21T05:05:05.073Z,69.97
2023-05-21T05:07:34.192Z,69.39
2023-05-21T05:10:03.670Z,69.33
2023-05-21T05:12:30.652Z,68.60
2023-05-21T05:14:59.684Z,69.42
2023-05-21T05:17:28.793Z,69.24
2023-05-21T05:19:55.718Z,69.33
2023-05-21T05:22:22.715Z,69.29
2023-05-21T05:24:49.679Z,69.25
2023-05-21T05:27:18.000Z,68.40
2023-05-21T05:29:47.727Z,67.61
2023-05-21T05:32:14.740Z,69.09
2023-05-21T05:34:45.722Z,69.96
2023-05-21T05:37:15.792Z,70.30
2023-05-21T05:39:42.740Z,70.53
2023-05-21T05:42:09.658Z,69.75
2023-05-21T05:44:39.133Z,69.42
2023-05-21T05:47:10.677Z,68.81
2023-05-21T05:49:37.977Z,68.54
2023-05-21T05:52:05.833Z,68.39
2023-05-21T05:54:33.240Z,68.19
2023-05-21T05:57:00.346Z,67.95
2023-05-21T05:59:27.467Z,68.47
2023-05-21T06:01:54.549Z,67.82
2023-05-21T06:04:24.054Z,67.32
2023-05-21T06:06:52.384Z,66.85
2023-05-21T06:09:19.330Z,65.37
2023-05-21T06:11:48.812Z,65.80
2023-05-21T06:14:17.981Z,65.88
2023-05-21T06:16:44.947Z,65.95
2023-05-21T06:19:11.921Z,65.80
2023-05-21T06:21:38.919Z,65.50
2023-05-21T06:24:06.588Z,64.95
2023-05-21T06:26:33.951Z,64.72
2023-05-21T06:29:00.993Z,62.88
2023-05-21T06:31:33.180Z,62.47
2023-05-21T06:34:01.130Z,62.50
2023-05-21T06:36:30.358Z,62.23
2023-05-21T06:38:59.819Z,61.36
2023-05-21T06:41:29.227Z,61.13
2023-05-21T06:44:00.897Z,61.85
2023-05-21T06:46:30.217Z,62.19
2023-05-21T06:48:57.312Z,61.08
2023-05-21T06:51:27.582Z,59.32
2023-05-21T06:53:54.792Z,59.92
2023-05-21T06:56:22.073Z,59.64
2023-05-21T06:58:51.688Z,58.21
2023-05-21T07:01:22.486Z,60.88
2023-05-21T07:03:52.946Z,61.06
2023-05-21T07:06:19.933Z,61.26
2023-05-21T07:08:49.837Z,60.49
2023-05-21T07:11:16.937Z,60.04
2023-05-21T07:13:44.035Z,62.47
2023-05-21T07:16:11.345Z,64.64
2023-05-21T07:18:38.520Z,62.64
2023-05-21T07:21:05.480Z,60.75
2023-05-21T07:23:35.201Z,58.18
2023-05-21T07:26:02.305Z,59.17
2023-05-21T07:28:29.308Z,58.14
2023-05-21T07:30:59.156Z,57.81
2023-05-21T07:33:28.926Z,59.53
2023-05-21T07:35:56.180Z,59.11
2023-05-21T07:38:23.302Z,57.95
2023-05-21T07:40:50.411Z,57.66
2023-05-21T07:43:19.438Z,55.58
2023-05-21T07:45:52.065Z,56.09
2023-05-21T07:48:21.926Z,55.17
2023-05-21T07:50:49.760Z,53.90
2023-05-21T07:53:16.883Z,53.23
2023-05-21T07:55:48.062Z,53.17
2023-05-21T07:58:20.869Z,53.58
2023-05-21T08:00:48.377Z,54.41
2023-05-21T08:03:19.242Z,53.78
2023-05-21T08:05:52.484Z,53.04
2023-05-21T08:08:26.552Z,51.26
2023-05-21T08:10:53.622Z,51.16
2023-05-21T08:13:20.866Z,51.75
2023-05-21T08:15:51.256Z,52.37
2023-05-21T08:18:19.822Z,52.72
2023-05-21T08:20:46.716Z,52.78
2023-05-21T08:23:13.814Z,53.01
2023-05-21T08:25:43.350Z,53.15
2023-05-21T08:28:10.317Z,53.17
2023-05-21T08:30:39.854Z,52.43
2023-05-21T08:33:09.629Z,52.46
2023-05-21T08:35:36.943Z,53.15
2023-05-21T08:38:08.687Z,52.53
2023-05-21T08:40:41.506Z,51.81
2023-05-21T08:43:13.946Z,52.09
2023-05-21T08:45:45.282Z,51.59
2023-05-21T08:48:13.181Z,51.35
2023-05-21T08:50:41.501Z,51.17
2023-05-21T08:53:15.871Z,51.48
2023-05-21T08:55:57.543Z,50.89
2023-05-21T08:58:24.892Z,51.51
2023-05-21T09:00:54.652Z,50.42
2023-05-21T09:03:24.931Z,50.39
2023-05-21T09:05:52.385Z,49.52
2023-05-21T09:08:31.508Z,50.44
2023-05-21T09:11:01.252Z,48.33
2023-05-21T09:13:32.123Z,47.23
2023-05-21T09:16:01.822Z,48.36
2023-05-21T09:18:33.262Z,47.89
2023-05-21T09:21:31.426Z,47.58
2023-05-21T09:24:00.571Z,47.89
2023-05-21T09:26:27.814Z,48.47
2023-05-21T09:29:00.013Z,47.62
2023-05-21T09:31:27.761Z,47.30
2023-05-21T09:33:57.454Z,47.06
2023-05-21T09:36:25.170Z,46.19
2023-05-21T09:38:55.851Z,46.43
2023-05-21T09:41:38.126Z,46.23
2023-05-21T09:44:05.959Z,46.46
2023-05-21T09:46:41.483Z,46.73
2023-05-21T09:49:26.303Z,46.39
2023-05-21T09:51:59.858Z,45.95
2023-05-21T09:54:33.221Z,45.08
2023-05-21T09:57:04.032Z,44.93
2023-05-21T09:59:44.155Z,44.38
2023-05-21T10:02:21.124Z,45.28
2023-05-21T10:04:57.471Z,46.48
2023-05-21T10:07:26.471Z,45.75
2023-05-21T10:09:59.136Z,46.29
2023-05-21T10:12:30.628Z,45.07
2023-05-21T10:15:01.913Z,43.95
2023-05-21T10:17:32.911Z,44.55
2023-05-21T10:20:01.711Z,45.17
2023-05-21T10:22:31.212Z,44.09
2023-05-21T10:24:59.057Z,43.40
2023-05-21T10:27:32.662Z,43.16
2023-05-21T10:30:05.973Z,42.81
2023-05-21T10:32:33.661Z,42.07
2023-05-21T10:35:02.466Z,42.46
2023-05-21T10:37:30.045Z,42.22
2023-05-21T10:39:57.553Z,42.47
2023-05-21T10:42:59.103Z,42.39
2023-05-21T10:45:32.652Z,41.61
2023-05-21T10:48:19.431Z,40.72
2023-05-21T10:51:10.821Z,40.85
2023-05-21T10:53:47.046Z,39.93
2023-05-21T10:56:41.765Z,39.61
2023-05-21T10:59:39.466Z,40.44
2023-05-21T11:02:07.719Z,40.42
2023-05-21T11:04:39.702Z,42.50
2023-05-21T11:07:08.897Z,43.59
2023-05-21T11:09:40.912Z,42.27
2023-05-21T11:12:13.022Z,42.44
2023-05-21T11:14:42.942Z,42.40
2023-05-21T11:17:09.870Z,43.20
2023-05-21T11:19:43.456Z,41.71
2023-05-21T11:22:24.590Z,40.96
2023-05-21T11:24:53.421Z,40.47
2023-05-21T11:27:40.944Z,40.36
2023-05-21T11:30:10.827Z,40.64
2023-05-21T11:33:07.805Z,41.15
2023-05-21T11:35:56.322Z,42.63
2023-05-21T11:38:23.300Z,40.95
2023-05-21T11:40:55.353Z,39.96
2023-05-21T11:43:28.018Z,39.43
2023-05-21T11:45:55.651Z,39.91
2023-05-21T11:48:27.379Z,40.16
2023-05-21T11:50:58.034Z,40.02
2023-05-21T11:53:29.921Z,40.08
2023-05-21T11:55:59.767Z,40.28
2023-05-21T11:58:34.373Z,39.69
2023-05-21T12:01:01.282Z,38.51
2023-05-21T12:03:37.483Z,38.11
2023-05-21T12:06:10.344Z,37.97
2023-05-21T12:08:39.879Z,38.64
2023-05-21T12:11:06.834Z,40.58
2023-05-21T12:13:34.087Z,39.94
2023-05-21T12:16:06.780Z,41.47
2023-05-21T12:18:34.150Z,40.61
2023-05-21T12:21:01.200Z,39.21
2023-05-21T12:23:32.711Z,39.10
2023-05-21T12:26:04.638Z,38.23
2023-05-21T12:28:32.422Z,38.40
2023-05-21T12:30:59.390Z,38.00
2023-05-21T12:33:36.824Z,37.18
2023-05-21T12:36:04.373Z,37.14
2023-05-21T12:38:31.840Z,36.84
2023-05-21T12:41:07.881Z,37.14
2023-05-21T12:43:40.312Z,39.46
2023-05-21T12:46:14.762Z,41.67
2023-05-21T12:48:48.761Z,41.10
2023-05-21T12:51:15.961Z,38.46
2023-05-21T12:53:46.368Z,38.31
2023-05-21T12:56:19.293Z,37.23
2023-05-21T12:58:50.704Z,38.07
2023-05-21T13:01:17.817Z,38.90
2023-05-21T13:03:45.614Z,39.69
2023-05-21T13:06:13.577Z,39.80
2023-05-21T13:08:42.701Z,38.94
2023-05-21T13:11:14.310Z,37.92
2023-05-21T13:13:43.847Z,36.96
2023-05-21T13:16:16.509Z,35.83
2023-05-21T13:18:43.464Z,35.15
2023-05-21T13:21:12.885Z,35.31
2023-05-21T13:23:39.899Z,35.81
2023-05-21T13:26:06.876Z,36.00
2023-05-21T13:28:36.352Z,36.69
2023-05-21T13:31:05.986Z,37.18
2023-05-21T13:33:35.705Z,37.95
2023-05-21T13:36:02.949Z,36.80
2023-05-21T13:38:29.947Z,37.42
2023-05-21T13:41:02.117Z,35.89
2023-05-21T13:43:29.209Z,36.42
2023-05-21T13:45:56.237Z,35.57
2023-05-21T13:48:23.184Z,35.74
2023-05-21T13:50:52.785Z,36.20
2023-05-21T13:53:22.055Z,36.83
2023-05-21T13:55:49.419Z,36.95
2023-05-21T13:58:16.468Z,36.39
2023-05-21T14:00:43.504Z,36.48
2023-05-21T14:03:12.967Z,36.60
2023-05-21T14:05:42.626Z,36.43
2023-05-21T14:08:14.399Z,37.26
2023-05-21T14:10:43.979Z,37.94
2023-05-21T14:13:19.726Z,38.38
2023-05-21T14:15:48.427Z,38.95
2023-05-21T14:18:15.723Z,38.55
2023-05-21T14:20:45.196Z,39.55
2023-05-21T14:23:15.113Z,38.31
2023-05-21T14:25:44.701Z,38.09
2023-05-21T14:28:12.112Z,37.68
2023-05-21T14:30:39.186Z,37.74
2023-05-21T14:33:06.428Z,37.76
2023-05-21T14:35:33.660Z,38.10
2023-05-21T14:38:05.582Z,37.31
2023-05-21T14:40:32.671Z,37.04
2023-05-21T14:42:59.669Z,37.51
2023-05-21T14:45:29.893Z,37.30
2023-05-21T14:47:56.960Z,37.21
2023-05-21T14:50:26.027Z,37.61
2023-05-21T14:52:53.129Z,36.61
2023-05-21T14:55:25.172Z,36.17
2023-05-21T14:57:56.615Z,35.48
2023-05-21T15:00:23.553Z,35.53
2023-05-21T15:02:50.922Z,35.53
2023-05-21T15:05:18.615Z,34.43
2023-05-21T15:07:47.138Z,33.96
2023-05-21T15:10:18.798Z,34.21
2023-05-21T15:12:50.526Z,35.08
2023-05-21T15:15:17.938Z,34.92
2023-05-21T15:17:44.992Z,33.69
2023-05-21T15:20:12.135Z,34.48
2023-05-21T15:22:39.523Z,35.30
2023-05-21T15:25:07.376Z,35.23
2023-05-21T15:27:34.842Z,35.39
2023-05-21T15:30:02.549Z,34.47
2023-05-21T15:32:31.334Z,35.20
2023-05-21T15:35:00.569Z,35.81
2023-05-21T15:37:33.392Z,35.27
2023-05-21T15:40:00.816Z,35.93
2023-05-21T15:42:31.785Z,35.75
2023-05-21T15:45:00.138Z,35.93
2023-05-21T15:47:29.804Z,35.72
2023-05-21T15:49:58.868Z,35.91
2023-05-21T15:52:28.546Z,35.28
2023-05-21T15:54:58.098Z,36.49
2023-05-21T15:57:25.412Z,36.68
2023-05-21T15:59:54.930Z,36.46
2023-05-21T16:02:22.150Z,36.98
2023-05-21T16:04:51.941Z,36.42
2023-05-21T16:07:19.865Z,37.19
2023-05-21T16:09:46.990Z,37.58
2023-05-21T16:12:16.194Z,37.66
2023-05-21T16:14:43.354Z,37.68
2023-05-21T16:17:10.431Z,37.65
2023-05-21T16:19:37.539Z,37.24
2023-05-21T16:22:04.767Z,38.05
2023-05-21T16:24:31.769Z,37.58
2023-05-21T16:27:03.235Z,36.92
2023-05-21T16:29:32.712Z,36.32
2023-05-21T16:31:59.775Z,37.01
2023-05-21T16:34:26.998Z,37.01
2023-05-21T16:36:57.115Z,36.82
2023-05-21T16:39:26.703Z,37.14
2023-05-21T16:41:59.660Z,37.86
2023-05-21T16:44:29.460Z,38.07
2023-05-21T16:47:02.343Z,37.90
2023-05-21T16:49:29.282Z,38.31
2023-05-21T16:51:58.210Z,39.16
2023-05-21T16:54:25.723Z,38.64
2023-05-21T16:56:54.590Z,38.33
2023-05-21T16:59:23.255Z,38.12
2023-05-21T17:01:50.881Z,38.41
2023-05-21T17:04:18.066Z,38.69
2023-05-21T17:06:47.361Z,38.62
2023-05-21T17:09:18.045Z,38.52
2023-05-21T17:11:50.410Z,38.52
2023-05-21T17:14:30.328Z,38.36
2023-05-21T17:17:03.007Z,38.37
2023-05-21T17:19:30.144Z,38.23
2023-05-21T17:21:57.347Z,38.44
2023-05-21T17:24:24.673Z,38.71
2023-05-21T17:26:53.618Z,38.47
2023-05-21T17:29:23.322Z,38.68
2023-05-21T17:31:52.927Z,38.80
2023-05-21T17:34:20.023Z,39.04
2023-05-21T17:36:47.064Z,39.32
2023-05-21T17:39:18.385Z,38.62
2023-05-21T17:41:49.514Z,38.76
2023-05-21T17:44:18.165Z,39.48
2023-05-21T17:46:47.370Z,39.34
2023-05-21T17:49:15.189Z,39.44
2023-05-21T17:51:45.507Z,39.43
2023-05-21T17:54:13.420Z,40.07
2023-05-21T17:56:40.930Z,39.84
2023-05-21T17:59:14.475Z,40.36
2023-05-21T18:01:48.758Z,40.25
2023-05-21T18:04:21.329Z,40.67
2023-05-21T18:06:51.812Z,40.22
2023-05-21T18:09:18.816Z,40.16
2023-05-21T18:11:45.963Z,40.31
2023-05-21T18:14:17.925Z,40.83
2023-05-21T18:16:47.482Z,40.41
2023-05-21T18:19:14.730Z,40.64
2023-05-21T18:21:41.856Z,40.65
2023-05-21T18:24:11.692Z,41.12
2023-05-21T18:26:43.368Z,40.92
2023-05-21T18:29:13.174Z,41.14
2023-05-21T18:31:40.575Z,41.19
2023-05-21T18:34:07.697Z,41.17
2023-05-21T18:36:38.681Z,41.34
2023-05-21T18:39:07.900Z,41.61
2023-05-21T18:41:35.419Z,41.40
2023-05-21T18:44:02.774Z,41.72
2023-05-21T18:46:30.004Z,41.88
2023-05-21T18:49:00.842Z,42.19
2023-05-21T18:51:27.829Z,42.72
2023-05-21T18:53:54.996Z,42.97
2023-05-21T18:56:24.576Z,43.95
2023-05-21T18:58:51.684Z,44.05
2023-05-21T19:01:24.098Z,44.94
2023-05-21T19:03:51.153Z,45.15
2023-05-21T19:06:25.051Z,45.55
2023-05-21T19:08:53.034Z,45.96
2023-05-21T19:11:23.594Z,46.63
2023-05-21T19:13:53.180Z,46.91
2023-05-21T19:16:22.784Z,47.18
2023-05-21T19:18:51.976Z,46.65
2023-05-21T19:21:19.450Z,46.66
2023-05-21T19:23:53.087Z,46.81
2023-05-21T19:26:25.430Z,47.24
2023-05-21T19:28:55.489Z,47.53
2023-05-21T19:31:23.689Z,47.45
2023-05-21T19:33:51.265Z,48.01
2023-05-21T19:36:18.838Z,47.46
2023-05-21T19:38:50.395Z,48.19
2023-05-21T19:41:21.999Z,47.68
2023-05-21T19:43:49.400Z,48.92
2023-05-21T19:46:19.814Z,47.87
2023-05-21T19:48:50.264Z,48.34
2023-05-21T19:51:17.456Z,48.32
2023-05-21T19:53:47.089Z,47.31
2023-05-21T19:56:17.310Z,48.14
2023-05-21T19:58:47.455Z,48.84
2023-05-21T20:01:17.917Z,49.17
2023-05-21T20:03:47.752Z,48.90
2023-05-21T20:06:19.096Z,48.74
2023-05-21T20:08:46.556Z,49.09
2023-05-21T20:11:13.987Z,49.79
2023-05-21T20:13:42.182Z,49.54
2023-05-21T20:16:10.595Z,49.87
2023-05-21T20:18:38.012Z,50.12
2023-05-21T20:21:06.671Z,50.12
2023-05-21T20:23:36.548Z,50.55
2023-05-21T20:26:03.782Z,50.35
2023-05-21T20:28:31.178Z,50.63
2023-05-21T20:30:58.544Z,50.07
2023-05-21T20:33:29.611Z,51.21
2023-05-21T20:35:56.984Z,51.95
2023-05-21T20:38:25.900Z,51.06
2023-05-21T20:40:57.668Z,50.76
2023-05-21T20:43:25.464Z,51.11
2023-05-21T20:45:59.704Z,50.65
2023-05-21T20:48:31.908Z,51.52
2023-05-21T20:51:03.336Z,51.61
2023-05-21T20:53:31.336Z,51.09
2023-05-21T20:56:01.655Z,51.81
2023-05-21T20:58:29.078Z,52.03
2023-05-21T21:01:01.954Z,51.61
2023-05-21T21:03:29.974Z,52.17
2023-05-21T21:06:01.131Z,51.76
2023-05-21T21:08:31.280Z,52.52
2023-05-21T21:10:58.260Z,52.17
2023-05-21T21:13:27.383Z,51.21
2023-05-21T21:15:56.843Z,51.13
2023-05-21T21:18:23.889Z,51.67
2023-05-21T21:20:51.190Z,51.88
2023-05-21T21:23:21.048Z,52.31
2023-05-21T21:25:47.969Z,52.30
2023-05-21T21:28:15.048Z,52.19
2023-05-21T21:30:42.378Z,52.00
2023-05-21T21:33:09.828Z,52.43
2023-05-21T21:35:36.920Z,52.35
2023-05-21T21:38:06.692Z,52.22
2023-05-21T21:40:36.131Z,52.46
2023-05-21T21:43:05.493Z,53.02
2023-05-21T21:45:35.033Z,52.77
2023-05-21T21:48:02.183Z,53.04
2023-05-21T21:50:29.318Z,53.45
2023-05-21T21:52:57.248Z,53.15
2023-05-21T21:55:26.650Z,53.42
2023-05-21T21:57:53.722Z,53.94
2023-05-21T22:00:21.101Z,53.16
2023-05-21T22:02:50.237Z,53.48
2023-05-21T22:05:17.452Z,52.92
2023-05-21T22:07:46.758Z,52.96
2023-05-21T22:10:15.938Z,52.75
2023-05-21T22:12:43.800Z,52.45
2023-05-21T22:15:28.601Z,52.82
2023-05-21T22:17:58.135Z,52.70
2023-05-21T22:20:29.975Z,52.64
2023-05-21T22:22:57.980Z,52.62
2023-05-21T22:25:25.511Z,52.80
2023-05-21T22:27:56.993Z,53.13
2023-05-21T22:30:26.586Z,52.70
2023-05-21T22:32:53.789Z,52.47
2023-05-21T22:35:21.092Z,52.80
2023-05-21T22:37:48.551Z,52.79
2023-05-21T22:40:18.614Z,52.68
2023-05-21T22:42:47.131Z,53.08
2023-05-21T22:45:16.692Z,53.08
2023-05-21T22:47:46.551Z,53.16
2023-05-21T22:50:13.817Z,53.54
2023-05-21T22:52:44.047Z,53.74
2023-05-21T22:55:11.622Z,53.21
2023-05-21T22:57:43.520Z,53.50
2023-05-21T23:00:11.713Z,53.36
2023-05-21T23:02:41.343Z,53.27
2023-05-21T23:05:09.249Z,53.33
2023-05-21T23:07:36.359Z,53.19
2023-05-21T23:10:03.980Z,52.76
2023-05-21T23:12:30.973Z,52.90
2023-05-21T23:15:01.074Z,53.72
2023-05-21T23:17:28.061Z,53.74
2023-05-21T23:19:56.306Z,53.62
2023-05-21T23:22:23.230Z,53.90
2023-05-21T23:24:54.192Z,53.69
2023-05-21T23:27:24.010Z,53.67
2023-05-21T23:29:53.577Z,53.44
2023-05-21T23:32:20.768Z,54.22
2023-05-21T23:34:48.405Z,54.06
2023-05-21T23:37:20.948Z,53.49
2023-05-21T23:39:52.580Z,54.19
2023-05-21T23:42:19.909Z,54.35
2023-05-21T23:44:49.206Z,54.85
2023-05-21T23:47:18.868Z,54.69
2023-05-21T23:49:46.031Z,54.40
2023-05-21T23:52:17.289Z,54.30
2023-05-21T23:54:47.071Z,54.62
2023-05-21T23:57:14.332Z,55.16
2023-05-21T23:59:41.399Z,54.98
